createdAt,value
2023-01-12T00:02:08.518Z,8.73
2023-01-12T00:04:54.102Z,9.15
2023-01-12T00:07:40.375Z,8.55
2023-01-12T00:10:25.936Z,8.23
2023-01-12T00:13:11.295Z,9.27
2023-01-12T00:16:16.808Z,10.85
2023-01-12T00:19:09.604Z,9.70
2023-01-12T00:22:08.703Z,10.77
2023-01-12T00:24:55.918Z,10.73
2023-01-12T00:27:41.402Z,11.25
2023-01-12T00:30:26.791Z,9.88
2023-01-12T00:33:13.968Z,11.90
2023-01-12T00:36:02.642Z,12.40
2023-01-12T00:38:48.482Z,11.13
2023-01-12T00:41:54.932Z,10.07
2023-01-12T00:44:59.457Z,10.13
2023-01-12T00:47:44.878Z,11.50
2023-01-12T00:50:30.245Z,8.43
2023-01-12T00:53:15.604Z,13.82
2023-01-12T00:56:04.853Z,20.65
2023-01-12T00:58:50.449Z,14.23
2023-01-12T01:01:35.845Z,12.20
2023-01-12T01:04:21.301Z,11.68
2023-01-12T01:07:06.880Z,15.90
2023-01-12T01:09:52.552Z,13.50
2023-01-12T01:12:37.915Z,12.40
2023-01-12T01:15:23.182Z,7.93
2023-01-12T01:18:08.458Z,9.38
2023-01-12T01:20:54.102Z,11.75
2023-01-12T01:23:41.507Z,13.35
2023-01-12T01:26:27.725Z,11.88
2023-01-12T01:29:13.156Z,15.63
2023-01-12T01:31:58.547Z,11.98
2023-01-12T01:34:44.003Z,13.48
2023-01-12T01:37:29.579Z,12.70
2023-01-12T01:40:15.047Z,14.30
2023-01-12T01:43:00.366Z,12.95
2023-01-12T01:45:51.006Z,11.88
2023-01-12T01:48:39.829Z,14.20
2023-01-12T01:51:25.410Z,13.73
2023-01-12T01:54:11.366Z,13.75
2023-01-12T01:56:57.927Z,15.75
2023-01-12T01:59:52.339Z,14.30
2023-01-12T02:02:39.097Z,12.77
2023-01-12T02:05:27.041Z,12.15
2023-01-12T02:08:23.827Z,9.82
2023-01-12T02:11:30.020Z,14.30
2023-01-12T02:14:34.409Z,15.68
2023-01-12T02:17:25.810Z,14.70
2023-01-12T02:20:26.976Z,14.90
2023-01-12T02:23:31.450Z,12.68
2023-01-12T02:26:56.690Z,20.23
2023-01-12T02:29:52.720Z,11.32
2023-01-12T02:32:44.633Z,9.32
2023-01-12T02:35:45.294Z,10.27
2023-01-12T02:38:46.752Z,19.95
2023-01-12T02:42:06.181Z,14.23
2023-01-12T02:45:00.216Z,13.45
2023-01-12T02:47:51.731Z,11.25
2023-01-12T02:50:46.216Z,13.57
2023-01-12T02:53:59.887Z,16.50
2023-01-12T02:57:00.144Z,15.50
2023-01-12T02:59:50.544Z,15.23
2023-01-12T03:02:38.231Z,14.73
2023-01-12T03:05:23.900Z,11.75
2023-01-12T03:08:15.976Z,10.55
2023-01-12T03:11:09.187Z,11.32
2023-01-12T03:14:00.741Z,14.18
2023-01-12T03:16:46.476Z,18.40
2023-01-12T03:19:33.456Z,16.42
2023-01-12T03:22:19.740Z,20.75
2023-01-12T03:25:11.127Z,17.88
2023-01-12T03:27:59.600Z,13.73
2023-01-12T03:30:56.952Z,16.77
2023-01-12T03:33:44.730Z,17.13
2023-01-12T03:36:48.550Z,16.70
2023-01-12T03:40:08.558Z,17.88
2023-01-12T03:43:25.966Z,16.20
2023-01-12T03:46:30.444Z,12.32
2023-01-12T03:49:24.900Z,13.35
2023-01-12T03:52:12.213Z,14.18
2023-01-12T03:54:59.590Z,14.90
2023-01-12T03:57:46.413Z,14.25
2023-01-12T04:00:32.023Z,16.17
2023-01-12T04:03:18.273Z,14.60
2023-01-12T04:06:03.618Z,16.77
2023-01-12T04:08:49.035Z,19.27
2023-01-12T04:11:53.031Z,19.33
2023-01-12T04:14:45.075Z,18.45
2023-01-12T04:17:31.630Z,15.88
2023-01-12T04:20:17.273Z,19.88
2023-01-12T04:23:02.892Z,14.95
2023-01-12T04:25:47.977Z,15.27
2023-01-12T04:28:33.329Z,21.05
2023-01-12T04:31:18.665Z,22.73
2023-01-12T04:34:04.013Z,21.25
2023-01-12T04:36:49.488Z,19.05
2023-01-12T04:39:34.851Z,14.85
2023-01-12T04:42:38.827Z,18.98
2023-01-12T04:45:24.251Z,20.25
2023-01-12T04:48:12.220Z,20.48
2023-01-12T04:50:59.607Z,22.67
2023-01-12T04:53:45.112Z,20.52
2023-01-12T04:56:31.181Z,19.38
2023-01-12T04:59:16.793Z,14.50
2023-01-12T05:02:02.172Z,20.98
2023-01-12T05:04:48.341Z,15.40
2023-01-12T05:07:34.234Z,25.10
2023-01-12T05:10:22.443Z,20.70
2023-01-12T05:13:08.090Z,18.40
2023-01-12T05:15:53.570Z,21.52
2023-01-12T05:18:38.971Z,19.70
2023-01-12T05:21:24.763Z,16.00
2023-01-12T05:24:10.244Z,23.92
2023-01-12T05:26:56.269Z,22.05
2023-01-12T05:29:41.799Z,21.27
2023-01-12T05:32:27.084Z,24.83
2023-01-12T05:35:12.584Z,22.05
2023-01-12T05:37:57.825Z,18.95
2023-01-12T05:40:43.230Z,26.52
2023-01-12T05:43:47.683Z,19.80
2023-01-12T05:46:33.480Z,24.55
2023-01-12T05:49:19.035Z,23.15
2023-01-12T05:52:04.399Z,27.17
2023-01-12T05:54:49.724Z,34.17
2023-01-12T05:57:35.069Z,30.48
2023-01-12T06:00:20.722Z,19.55
2023-01-12T06:03:06.337Z,20.80
2023-01-12T06:05:55.867Z,20.25
2023-01-12T06:08:41.178Z,21.63
2023-01-12T06:11:45.062Z,20.02
2023-01-12T06:14:30.877Z,19.40
2023-01-12T06:17:16.428Z,20.30
2023-01-12T06:20:01.971Z,20.90
2023-01-12T06:22:47.420Z,18.70
2023-01-12T06:25:32.921Z,20.30
2023-01-12T06:28:19.099Z,18.20
2023-01-12T06:31:06.955Z,33.38
2023-01-12T06:33:52.368Z,31.50
2023-01-12T06:36:39.011Z,31.52
2023-01-12T06:39:24.709Z,20.02
2023-01-12T06:42:28.440Z,25.85
2023-01-12T06:45:14.033Z,22.35
2023-01-12T06:47:59.795Z,22.70
2023-01-12T06:50:45.274Z,19.73
2023-01-12T06:53:30.613Z,20.95
2023-01-12T06:56:15.959Z,23.30
2023-01-12T06:59:01.465Z,29.55
2023-01-12T07:01:46.876Z,31.65
2023-01-12T07:04:32.963Z,23.30
2023-01-12T07:07:18.463Z,50.30
2023-01-12T07:10:04.729Z,26.60
2023-01-12T07:12:50.351Z,24.23
2023-01-12T07:15:35.919Z,24.92
2023-01-12T07:18:21.326Z,20.15
2023-01-12T07:21:08.629Z,26.70
2023-01-12T07:23:54.215Z,25.67
2023-01-12T07:26:39.691Z,26.98
2023-01-12T07:29:25.705Z,25.48
2023-01-12T07:32:11.214Z,26.35
2023-01-12T07:34:56.742Z,25.42
2023-01-12T07:37:49.892Z,29.38
2023-01-12T07:40:37.996Z,40.92
2023-01-12T07:43:23.550Z,25.38
2023-01-12T07:46:09.158Z,23.15
2023-01-12T07:48:54.434Z,32.38
2023-01-12T07:51:40.070Z,22.92
2023-01-12T07:54:25.739Z,22.45
2023-01-12T07:57:12.293Z,24.67
2023-01-12T07:59:57.795Z,30.50
2023-01-12T08:02:43.132Z,21.05
2023-01-12T08:05:29.227Z,21.77
2023-01-12T08:08:14.675Z,29.23
2023-01-12T08:11:06.112Z,18.42
2023-01-12T08:13:56.905Z,19.50
2023-01-12T08:16:46.519Z,33.58
2023-01-12T08:19:50.600Z,29.42
2023-01-12T08:22:41.249Z,25.25
2023-01-12T08:25:31.860Z,27.55
2023-01-12T08:28:24.404Z,22.85
2023-01-12T08:31:11.099Z,20.15
2023-01-12T08:33:56.725Z,25.58
2023-01-12T08:36:44.314Z,24.50
2023-01-12T08:39:30.316Z,26.48
2023-01-12T08:42:16.320Z,21.95
2023-01-12T08:45:02.975Z,22.52
2023-01-12T08:47:48.500Z,22.75
2023-01-12T08:50:33.920Z,21.38
2023-01-12T08:53:19.316Z,29.02
2023-01-12T08:56:04.967Z,34.17
2023-01-12T08:58:50.558Z,23.88
2023-01-12T09:01:36.408Z,25.23
2023-01-12T09:04:21.964Z,18.90
2023-01-12T09:07:08.876Z,28.63
2023-01-12T09:09:54.396Z,24.40
2023-01-12T09:12:39.955Z,23.35
2023-01-12T09:15:25.259Z,24.83
2023-01-12T09:18:10.875Z,28.13
2023-01-12T09:21:06.943Z,33.25
2023-01-12T09:23:53.376Z,29.30
2023-01-12T09:26:41.362Z,37.90
2023-01-12T09:29:26.925Z,32.20
2023-01-12T09:32:12.249Z,31.83
2023-01-12T09:34:59.726Z,28.70
2023-01-12T09:37:46.289Z,26.90
2023-01-12T09:40:31.856Z,37.28
2023-01-12T09:43:35.832Z,34.70
2023-01-12T09:46:42.905Z,31.23
2023-01-12T09:49:34.063Z,27.77
2023-01-12T09:52:29.547Z,33.55
2023-01-12T09:55:21.548Z,36.30
2023-01-12T09:58:43.989Z,37.67
2023-01-12T10:01:30.439Z,38.90
2023-01-12T10:04:15.909Z,35.53
2023-01-12T10:07:01.921Z,39.45
2023-01-12T10:09:47.347Z,46.60
2023-01-12T10:12:42.058Z,38.05
2023-01-12T10:15:53.610Z,36.08
2023-01-12T10:18:47.563Z,38.97
2023-01-12T10:21:33.117Z,34.17
2023-01-12T10:24:22.038Z,34.50
2023-01-12T10:27:12.048Z,29.60
2023-01-12T10:29:58.517Z,33.88
2023-01-12T10:32:47.020Z,35.58
2023-01-12T10:35:32.853Z,27.60
2023-01-12T10:38:55.909Z,37.17
2023-01-12T10:41:42.793Z,39.40
2023-01-12T10:44:28.236Z,43.60
2023-01-12T10:47:18.304Z,36.90
2023-01-12T10:50:25.110Z,31.80
2023-01-12T10:53:17.012Z,32.47
2023-01-12T10:56:19.908Z,32.45
2023-01-12T11:02:13.963Z,36.65
2023-01-12T11:04:59.296Z,40.33
2023-01-12T11:07:50.848Z,39.90
2023-01-12T11:10:37.397Z,37.85
2023-01-12T11:13:37.630Z,31.48
2023-01-12T11:16:48.051Z,51.50
2023-01-12T11:19:39.645Z,43.70
2023-01-12T11:22:33.339Z,39.05
2023-01-12T11:25:23.377Z,34.40
2023-01-12T11:28:24.086Z,36.33
2023-01-12T11:31:19.612Z,39.08
2023-01-12T11:34:24.894Z,38.55
2023-01-12T11:37:14.217Z,43.30
2023-01-12T11:40:15.614Z,38.92
2023-01-12T11:43:50.606Z,54.05
2023-01-12T11:46:44.633Z,45.97
2023-01-12T11:49:39.600Z,49.40
2023-01-12T11:52:27.215Z,50.45
2023-01-12T11:55:19.773Z,33.50
2023-01-12T12:01:11.385Z,41.85
2023-01-12T12:04:04.189Z,48.65
2023-01-12T12:06:56.347Z,31.00
2023-01-12T12:09:47.829Z,50.53
2023-01-12T12:12:47.277Z,41.13
2023-01-12T12:15:48.302Z,52.47
2023-01-12T12:18:58.120Z,39.60
2023-01-12T12:21:49.786Z,54.45
2023-01-12T12:24:54.567Z,45.72
2023-01-12T12:28:27.667Z,54.28
2023-01-12T12:31:28.990Z,43.45
2023-01-12T12:34:43.212Z,35.88
2023-01-12T12:37:55.444Z,48.30
2023-01-12T12:41:09.686Z,39.67
2023-01-12T12:44:41.219Z,39.83
2023-01-12T12:47:42.115Z,29.17
2023-01-12T12:50:36.738Z,32.60
2023-01-12T12:53:35.917Z,31.70
2023-01-12T12:56:25.120Z,35.95
2023-01-12T12:59:50.660Z,32.33
2023-01-12T13:02:40.235Z,40.00
2023-01-12T13:06:09.883Z,37.30
2023-01-12T13:09:01.026Z,39.40
2023-01-12T13:11:55.719Z,38.55
2023-01-12T13:14:43.727Z,51.42
2023-01-12T13:17:32.503Z,53.00
2023-01-12T13:20:25.686Z,43.33
2023-01-12T13:23:50.653Z,47.50
2023-01-12T13:26:40.874Z,32.38
2023-01-12T13:29:26.405Z,38.00
2023-01-12T13:32:33.212Z,38.13
2023-01-12T13:35:35.151Z,35.90
2023-01-12T13:38:23.625Z,67.88
2023-01-12T13:41:48.169Z,36.80
2023-01-12T13:44:39.745Z,36.03
2023-01-12T13:47:32.926Z,43.15
2023-01-12T13:50:24.993Z,36.80
2023-01-12T13:53:23.557Z,32.97
2023-01-12T13:56:20.484Z,46.33
2023-01-12T13:59:07.898Z,43.95
2023-01-12T14:01:55.781Z,40.72
2023-01-12T14:05:07.088Z,31.60
2023-01-12T14:08:20.592Z,32.58
2023-01-12T14:11:24.560Z,36.83
2023-01-12T14:15:04.367Z,28.42
2023-01-12T14:17:50.115Z,25.85
2023-01-12T14:20:47.577Z,31.17
2023-01-12T14:23:35.818Z,52.03
2023-01-12T14:26:23.989Z,51.88
2023-01-12T14:29:11.669Z,37.17
2023-01-12T14:31:58.063Z,40.50
2023-01-12T14:34:50.472Z,48.92
2023-01-12T14:37:36.492Z,55.08
2023-01-12T14:40:33.671Z,49.35
2023-01-12T14:43:38.718Z,44.80
2023-01-12T14:46:28.776Z,58.03
2023-01-12T14:49:34.699Z,45.58
2023-01-12T14:52:29.918Z,32.47
2023-01-12T14:55:26.285Z,35.47
2023-01-12T14:58:20.702Z,49.67
2023-01-12T15:01:07.096Z,74.97
2023-01-12T15:03:53.338Z,67.07
2023-01-12T15:06:41.423Z,80.88
2023-01-12T15:09:37.188Z,35.70
2023-01-12T15:12:32.040Z,35.17
2023-01-12T15:15:23.964Z,38.80
2023-01-12T15:18:48.044Z,47.03
2023-01-12T15:21:53.246Z,55.13
2023-01-12T15:24:59.962Z,76.82
2023-01-12T15:27:45.570Z,52.00
2023-01-12T15:30:35.883Z,49.63
2023-01-12T15:33:21.840Z,62.60
2023-01-12T15:36:08.941Z,54.97
2023-01-12T15:38:55.230Z,37.58
2023-01-12T15:41:59.634Z,40.00
2023-01-12T15:44:46.861Z,54.90
2023-01-12T15:47:32.526Z,42.70
2023-01-12T15:50:17.808Z,58.03
2023-01-12T15:53:03.483Z,66.68
2023-01-12T15:55:49.651Z,59.65
2023-01-12T15:58:35.157Z,62.65
2023-01-12T16:01:21.024Z,54.10
2023-01-12T16:04:40.460Z,40.65
2023-01-12T16:07:12.226Z,47.30
2023-01-12T16:09:58.235Z,49.60
2023-01-12T16:12:44.454Z,32.45
2023-01-12T16:15:30.436Z,71.10
2023-01-12T16:18:15.987Z,50.38
2023-01-12T16:21:02.422Z,40.45
2023-01-12T16:23:47.872Z,86.82
2023-01-12T16:26:33.737Z,59.60
2023-01-12T16:29:19.663Z,56.70
2023-01-12T16:32:05.744Z,47.47
2023-01-12T16:34:51.666Z,58.35
2023-01-12T16:37:37.540Z,61.75
2023-01-12T16:40:22.748Z,68.60
2023-01-12T16:43:08.242Z,48.15
2023-01-12T16:45:53.812Z,29.08
2023-01-12T16:48:41.861Z,37.30
2023-01-12T16:51:27.538Z,28.50
2023-01-12T16:54:12.950Z,51.28
2023-01-12T16:56:58.911Z,80.25
2023-01-12T16:59:44.933Z,36.13
2023-01-12T17:02:31.675Z,21.95
2023-01-12T17:05:17.948Z,35.28
2023-01-12T17:08:04.144Z,25.92
2023-01-12T17:10:50.927Z,23.27
2023-01-12T17:13:36.719Z,39.85
2023-01-12T17:16:25.301Z,34.85
2023-01-12T17:19:11.115Z,35.17
2023-01-12T17:21:58.273Z,46.00
2023-01-12T17:24:43.765Z,55.88
2023-01-12T17:27:29.031Z,37.88
2023-01-12T17:30:15.146Z,35.78
2023-01-12T17:33:00.646Z,35.50
2023-01-12T17:35:46.963Z,46.03
2023-01-12T17:38:34.750Z,37.33
2023-01-12T17:41:38.987Z,39.20
2023-01-12T17:44:24.439Z,23.15
2023-01-12T17:47:11.169Z,22.58
2023-01-12T17:49:56.618Z,26.35
2023-01-12T17:52:41.971Z,29.98
2023-01-12T17:55:27.901Z,39.78
2023-01-12T17:58:13.259Z,18.88
2023-01-12T18:00:59.071Z,30.08
2023-01-12T18:03:45.211Z,25.95
2023-01-12T18:06:31.000Z,33.88
2023-01-12T18:09:17.523Z,24.63
2023-01-12T18:12:03.885Z,31.40
2023-01-12T18:14:49.772Z,22.42
2023-01-12T18:17:35.468Z,25.23
2023-01-12T18:20:20.953Z,21.65
2023-01-12T18:23:06.356Z,26.45
2023-01-12T18:25:51.706Z,33.58
2023-01-12T18:28:37.295Z,32.72
2023-01-12T18:31:25.985Z,31.67
2023-01-12T18:34:11.294Z,37.15
2023-01-12T18:36:56.912Z,39.45
2023-01-12T18:39:44.002Z,36.45
2023-01-12T18:42:48.413Z,37.95
2023-01-12T18:45:34.042Z,41.95
2023-01-12T18:48:23.995Z,34.30
2023-01-12T18:51:27.850Z,36.10
2023-01-12T18:54:13.388Z,36.28
2023-01-12T18:56:58.874Z,36.42
2023-01-12T18:59:45.464Z,32.38
2023-01-12T19:02:31.151Z,29.48
2023-01-12T19:05:31.457Z,29.42
2023-01-12T19:08:37.720Z,22.75
2023-01-12T19:11:25.545Z,30.08
2023-01-12T19:14:29.949Z,26.80
2023-01-12T19:17:27.724Z,34.38
2023-01-12T19:20:16.017Z,32.78
2023-01-12T19:23:19.911Z,27.35
2023-01-12T19:26:24.087Z,29.35
2023-01-12T19:29:10.003Z,30.45
2023-01-12T19:31:56.760Z,32.05
2023-01-12T19:34:43.289Z,38.63
2023-01-12T19:37:28.492Z,26.02
2023-01-12T19:40:34.819Z,32.15
2023-01-12T19:43:28.595Z,34.83
2023-01-12T19:46:14.324Z,32.00
2023-01-12T19:48:59.961Z,35.05
2023-01-12T19:51:46.977Z,32.63
2023-01-12T19:54:32.475Z,29.05
2023-01-12T19:57:19.839Z,36.53
2023-01-12T20:00:09.990Z,31.27
2023-01-12T20:02:58.634Z,30.95
2023-01-12T20:05:47.617Z,30.60
2023-01-12T20:08:33.615Z,30.77
2023-01-12T20:11:19.154Z,26.52
2023-01-12T20:14:04.624Z,31.60
2023-01-12T20:16:50.460Z,26.95
2023-01-12T20:19:36.117Z,29.88
2023-01-12T20:22:21.519Z,35.20
2023-01-12T20:25:07.510Z,33.17
2023-01-12T20:27:54.021Z,31.58
2023-01-12T20:30:43.602Z,34.08
2023-01-12T20:33:28.802Z,34.67
2023-01-12T20:36:16.824Z,28.88
2023-01-12T20:39:02.487Z,36.22
2023-01-12T20:41:49.769Z,25.77
2023-01-12T20:44:36.559Z,22.08
2023-01-12T20:47:22.138Z,22.95
2023-01-12T20:50:10.953Z,26.55
2023-01-12T20:52:56.805Z,23.95
2023-01-12T20:55:51.671Z,28.83
2023-01-12T20:58:37.458Z,25.95
2023-01-12T21:01:23.053Z,28.85
2023-01-12T21:04:08.888Z,24.35
2023-01-12T21:06:54.490Z,25.63
2023-01-12T21:09:40.299Z,23.85
2023-01-12T21:12:27.530Z,24.33
2023-01-12T21:15:13.574Z,27.20
2023-01-12T21:17:59.158Z,25.52
2023-01-12T21:20:44.890Z,28.80
2023-01-12T21:23:30.151Z,31.15
2023-01-12T21:26:16.102Z,32.53
2023-01-12T21:29:02.128Z,29.08
2023-01-12T21:31:47.860Z,28.90
2023-01-12T21:34:33.505Z,29.42
2023-01-12T21:37:19.760Z,29.75
2023-01-12T21:40:06.186Z,30.17
2023-01-12T21:43:11.911Z,26.10
2023-01-12T21:46:05.035Z,27.80
2023-01-12T21:48:50.588Z,21.83
2023-01-12T21:51:35.895Z,27.42
2023-01-12T21:54:21.131Z,25.35
2023-01-12T21:57:06.823Z,21.98
2023-01-12T21:59:52.521Z,22.50
2023-01-12T22:02:37.798Z,24.65
2023-01-12T22:05:24.017Z,20.63
2023-01-12T22:08:10.969Z,25.77
2023-01-12T22:10:56.639Z,31.88
2023-01-12T22:13:43.499Z,36.28
2023-01-12T22:16:28.990Z,27.70
2023-01-12T22:19:14.581Z,26.88
2023-01-12T22:22:01.538Z,28.00
2023-01-12T22:24:46.963Z,26.95
2023-01-12T22:27:33.379Z,26.88
2023-01-12T22:30:22.280Z,28.33
2023-01-12T22:33:11.215Z,31.50
2023-01-12T22:35:56.869Z,28.60
2023-01-12T22:38:42.347Z,25.60
2023-01-12T22:41:27.664Z,33.17
2023-01-12T22:44:13.152Z,28.73
2023-01-12T22:46:58.552Z,20.15
2023-01-12T22:49:45.347Z,28.45
2023-01-12T22:52:30.972Z,26.38
2023-01-12T22:55:16.435Z,24.60
2023-01-12T22:58:01.729Z,22.00
2023-01-12T23:00:48.728Z,23.67
2023-01-12T23:03:35.313Z,23.67
2023-01-12T23:06:22.401Z,23.33
2023-01-12T23:09:07.846Z,20.17
2023-01-12T23:11:53.686Z,21.90
2023-01-12T23:14:39.320Z,19.38
2023-01-12T23:17:24.941Z,18.23
2023-01-12T23:20:11.000Z,20.65
2023-01-12T23:22:57.505Z,22.67
2023-01-12T23:25:44.563Z,22.52
2023-01-12T23:28:30.613Z,25.63
2023-01-12T23:31:21.572Z,20.45
2023-01-12T23:34:07.138Z,29.08
2023-01-12T23:36:52.564Z,32.35
2023-01-12T23:39:37.853Z,26.67
2023-01-12T23:42:23.281Z,26.15
2023-01-12T23:45:09.156Z,20.52
2023-01-12T23:47:54.668Z,32.85
2023-01-12T23:50:40.229Z,37.08
2023-01-12T23:53:26.552Z,24.65
2023-01-12T23:56:14.845Z,23.10
2023-01-12T23:59:01.082Z,25.75
